Time;durP1;ratioP1;P1;durP2;ratioP2;P2;SDS_P1;SDS_P2;PMS_P1;PMS_P2;Temp;Humidity;BMP_temperature;BMP_pressure;BME280_temperature;BME280_humidity;BME280_pressure;Samples;Min_cycle;Max_cycle;Signal;HPM_P1;HPM_P2
2023/01/20 00:01:00;;;;;;;31.48;15.48;;;;;;;;;;5139423;27;20025;-72
2023/01/20 00:03:26;;;;;;;29.63;15.15;;;;;;;;;;5137434;27;20027;-71
2023/01/20 00:05:51;;;;;;;30.60;15.40;;;;;;;;;;5139994;27;20019;-72
2023/01/20 00:08:16;;;;;;;29.05;14.63;;;;;;;;;;5115116;27;20263;-72
2023/01/20 00:10:42;;;;;;;27.93;14.67;;;;;;;;;;5122886;27;20036;-72
2023/01/20 00:13:07;;;;;;;29.80;15.27;;;;;;;;;;5113839;27;20027;-72
2023/01/20 00:15:32;;;;;;;28.87;15.27;;;;;;;;;;5123666;27;20051;-72
2023/01/20 00:17:57;;;;;;;27.53;14.50;;;;;;;;;;5132721;27;20431;-72
2023/01/20 00:20:23;;;;;;;31.23;15.23;;;;;;;;;;5132489;27;20266;-72
2023/01/20 00:22:48;;;;;;;32.10;15.90;;;;;;;;;;5120245;27;20027;-76
2023/01/20 00:25:13;;;;;;;27.93;14.60;;;;;;;;;;5115358;27;20298;-76
2023/01/20 00:27:38;;;;;;;26.93;13.73;;;;;;;;;;5137661;27;20807;-75
2023/01/20 00:30:04;;;;;;;28.73;15.20;;;;;;;;;;5114993;27;20298;-76
2023/01/20 00:32:29;;;;;;;27.52;13.88;;;;;;;;;;5138477;27;20287;-76
2023/01/20 00:34:54;;;;;;;29.10;14.50;;;;;;;;;;5120025;27;20030;-76
2023/01/20 00:37:19;;;;;;;28.97;14.53;;;;;;;;;;5123394;27;20071;-76
2023/01/20 00:39:45;;;;;;;28.93;14.03;;;;;;;;;;5138366;27;20097;-76
2023/01/20 00:42:10;;;;;;;31.97;16.17;;;;;;;;;;5112895;27;20038;-76
2023/01/20 00:44:35;;;;;;;30.27;14.23;;;;;;;;;;5134408;27;20066;-75
2023/01/20 00:47:00;;;;;;;30.58;15.70;;;;;;;;;;5135087;27;20047;-76
2023/01/20 00:49:26;;;;;;;27.60;14.40;;;;;;;;;;5118480;27;20509;-77
2023/01/20 00:51:51;;;;;;;27.80;13.87;;;;;;;;;;5125042;27;20267;-75
2023/01/20 00:54:16;;;;;;;28.30;14.80;;;;;;;;;;5110448;28;20307;-77
2023/01/20 00:56:41;;;;;;;27.10;14.00;;;;;;;;;;5130700;27;20500;-77
2023/01/20 00:59:07;;;;;;;28.57;13.93;;;;;;;;;;5116526;28;20083;-77
2023/01/20 01:01:33;;;;;;;26.83;14.38;;;;;;;;;;5139138;27;20779;-75
2023/01/20 01:03:58;;;;;;;29.40;15.10;;;;;;;;;;5140060;27;20023;-77
2023/01/20 01:06:23;;;;;;;31.45;14.93;;;;;;;;;;5109971;28;20100;-77
2023/01/20 01:08:48;;;;;;;33.00;15.97;;;;;;;;;;5134613;27;20030;-77
2023/01/20 01:11:14;;;;;;;32.20;15.37;;;;;;;;;;5136383;27;20088;-77
2023/01/20 01:13:39;;;;;;;31.73;15.90;;;;;;;;;;5133392;27;20285;-78
2023/01/20 01:16:08;;;;;;;29.67;14.90;;;;;;;;;;5131461;27;20093;-77
2023/01/20 01:18:34;;;;;;;30.58;15.20;;;;;;;;;;5134169;27;20031;-76
2023/01/20 01:21:04;;;;;;;30.67;15.60;;;;;;;;;;5134703;27;20107;-77
2023/01/20 01:23:29;;;;;;;31.75;16.15;;;;;;;;;;5103706;27;20263;-75
2023/01/20 01:25:54;;;;;;;33.00;16.75;;;;;;;;;;5113772;28;20026;-76
2023/01/20 01:28:20;;;;;;;31.13;15.93;;;;;;;;;;5113932;28;20396;-75
2023/01/20 01:30:45;;;;;;;32.53;16.93;;;;;;;;;;5134110;27;20128;-77
2023/01/20 01:33:10;;;;;;;34.20;16.47;;;;;;;;;;5131971;27;20039;-76
2023/01/20 01:35:35;;;;;;;32.30;16.87;;;;;;;;;;5133191;27;20688;-77
2023/01/20 01:38:01;;;;;;;30.53;15.37;;;;;;;;;;5134574;27;20465;-76
2023/01/20 01:40:26;;;;;;;35.50;14.93;;;;;;;;;;5116529;27;20270;-78
2023/01/20 01:42:51;;;;;;;31.87;15.53;;;;;;;;;;5123976;27;20035;-76
2023/01/20 01:45:21;;;;;;;32.03;15.88;;;;;;;;;;5126988;27;20283;-77
2023/01/20 01:47:53;;;;;;;36.60;16.55;;;;;;;;;;5117731;27;20426;-76
2023/01/20 01:50:23;;;;;;;33.58;17.58;;;;;;;;;;5134058;27;20034;-76
2023/01/20 01:52:50;;;;;;;35.92;18.10;;;;;;;;;;5143716;27;20027;-77
2023/01/20 01:55:17;;;;;;;34.65;17.23;;;;;;;;;;5122300;27;20043;-77
2023/01/20 01:57:42;;;;;;;31.45;16.08;;;;;;;;;;5134218;27;20104;-76
2023/01/20 02:00:08;;;;;;;35.28;17.73;;;;;;;;;;5138241;27;20409;-76
2023/01/20 02:02:34;;;;;;;35.47;17.77;;;;;;;;;;5137920;27;21557;-77
2023/01/20 02:05:00;;;;;;;36.60;17.90;;;;;;;;;;5140492;27;20106;-77
2023/01/20 02:07:25;;;;;;;35.78;17.15;;;;;;;;;;5130680;27;20062;-77
2023/01/20 02:09:51;;;;;;;34.58;17.35;;;;;;;;;;5130547;27;20468;-77
2023/01/20 02:12:17;;;;;;;36.58;17.73;;;;;;;;;;5138536;27;20026;-76
2023/01/20 02:14:44;;;;;;;38.20;17.48;;;;;;;;;;5132530;27;20038;-77
2023/01/20 02:17:20;;;;;;;37.15;17.83;;;;;;;;;;5119505;27;20091;-73
2023/01/20 02:19:48;;;;;;;35.85;19.00;;;;;;;;;;5123740;27;20045;-73
2023/01/20 02:22:13;;;;;;;38.53;19.23;;;;;;;;;;5125185;27;22190;-72
2023/01/20 02:25:03;;;;;;;35.80;16.90;;;;;;;;;;5125756;27;20106;-73
2023/01/20 02:27:39;;;;;;;34.05;16.83;;;;;;;;;;5131647;27;20738;-72
2023/01/20 02:30:07;;;;;;;40.90;18.95;;;;;;;;;;5115966;27;20047;-73
2023/01/20 02:32:42;;;;;;;38.35;18.58;;;;;;;;;;5115898;27;20027;-72
2023/01/20 02:35:09;;;;;;;39.60;18.30;;;;;;;;;;5118344;27;20024;-72
2023/01/20 02:37:45;;;;;;;38.70;17.90;;;;;;;;;;5135566;27;20027;-72
2023/01/20 02:40:13;;;;;;;35.25;16.80;;;;;;;;;;5119233;27;20087;-72
2023/01/20 02:42:50;;;;;;;39.15;18.30;;;;;;;;;;5118735;27;20078;-72
2023/01/20 02:45:27;;;;;;;38.65;17.70;;;;;;;;;;5116716;27;20043;-72
2023/01/20 02:48:01;;;;;;;41.03;19.25;;;;;;;;;;5111145;27;20074;-72
2023/01/20 02:50:30;;;;;;;38.80;17.50;;;;;;;;;;5121610;27;20019;-73
2023/01/20 02:52:58;;;;;;;39.60;18.02;;;;;;;;;;5127042;27;20027;-73
2023/01/20 02:55:44;;;;;;;40.65;18.55;;;;;;;;;;5127392;27;20145;-72
2023/01/20 02:58:13;;;;;;;37.28;17.92;;;;;;;;;;5122749;27;20029;-72
2023/01/20 03:00:50;;;;;;;36.58;17.63;;;;;;;;;;5122349;27;20031;-71
2023/01/20 03:03:18;;;;;;;38.60;18.52;;;;;;;;;;5121989;27;20090;-72
2023/01/20 03:05:49;;;;;;;34.30;16.67;;;;;;;;;;5138185;27;20035;-72
2023/01/20 03:08:16;;;;;;;38.35;17.38;;;;;;;;;;5137679;27;20030;-70
2023/01/20 03:10:41;;;;;;;38.88;18.10;;;;;;;;;;5119275;27;20040;-69
2023/01/20 03:13:09;;;;;;;39.58;18.02;;;;;;;;;;5128209;27;20039;-70
2023/01/20 03:15:40;;;;;;;41.30;18.15;;;;;;;;;;5131974;27;20045;-72
2023/01/20 03:18:05;;;;;;;38.85;18.55;;;;;;;;;;5130335;27;20029;-73
2023/01/20 03:20:30;;;;;;;37.60;18.03;;;;;;;;;;5134353;27;20015;-70
2023/01/20 03:22:56;;;;;;;35.22;17.10;;;;;;;;;;5109881;27;20267;-69
2023/01/20 03:25:21;;;;;;;33.80;16.13;;;;;;;;;;5119894;27;20024;-68
2023/01/20 03:27:47;;;;;;;33.15;16.88;;;;;;;;;;5117260;27;20481;-72
2023/01/20 03:30:13;;;;;;;31.75;16.05;;;;;;;;;;5121119;27;20022;-72
2023/01/20 03:32:39;;;;;;;35.17;16.77;;;;;;;;;;5125221;27;20031;-73
2023/01/20 03:35:05;;;;;;;33.28;15.82;;;;;;;;;;5133537;27;20555;-73
2023/01/20 03:37:30;;;;;;;35.80;16.45;;;;;;;;;;5119252;27;20043;-73
2023/01/20 03:39:56;;;;;;;36.15;17.13;;;;;;;;;;5137393;27;20022;-73
2023/01/20 03:42:34;;;;;;;34.47;16.40;;;;;;;;;;5120993;27;20023;-73
2023/01/20 03:44:59;;;;;;;32.38;15.80;;;;;;;;;;5132646;27;20039;-73
2023/01/20 03:47:27;;;;;;;38.93;17.33;;;;;;;;;;5133992;27;20035;-73
2023/01/20 03:49:55;;;;;;;33.05;16.45;;;;;;;;;;5131283;27;20477;-73
2023/01/20 03:52:23;;;;;;;35.80;16.67;;;;;;;;;;5133848;27;20038;-72
2023/01/20 03:55:01;;;;;;;36.22;16.45;;;;;;;;;;5137386;27;20034;-73
2023/01/20 03:57:38;;;;;;;39.92;18.50;;;;;;;;;;5131822;27;20068;-73
2023/01/20 04:00:05;;;;;;;38.05;18.15;;;;;;;;;;5133338;27;20034;-73
2023/01/20 04:02:31;;;;;;;37.30;17.27;;;;;;;;;;5112042;27;20033;-73
2023/01/20 04:04:57;;;;;;;36.97;17.35;;;;;;;;;;5137072;27;20022;-73
2023/01/20 04:07:24;;;;;;;39.30;18.65;;;;;;;;;;5123458;27;20033;-73
2023/01/20 04:09:52;;;;;;;40.28;19.58;;;;;;;;;;5138059;27;20030;-72
2023/01/20 04:12:17;;;;;;;39.75;18.42;;;;;;;;;;5121006;27;20026;-72
2023/01/20 04:14:42;;;;;;;42.58;19.98;;;;;;;;;;5140544;27;20140;-76
2023/01/20 04:17:08;;;;;;;40.65;18.83;;;;;;;;;;5116109;27;20122;-75
2023/01/20 04:19:33;;;;;;;44.45;19.35;;;;;;;;;;5117912;27;20074;-76
2023/01/20 04:22:11;;;;;;;41.95;19.05;;;;;;;;;;5128255;27;20037;-76
2023/01/20 04:24:39;;;;;;;41.28;19.15;;;;;;;;;;5134821;27;20027;-76
2023/01/20 04:27:05;;;;;;;39.25;19.33;;;;;;;;;;5119224;27;20099;-75
2023/01/20 04:29:30;;;;;;;46.17;21.40;;;;;;;;;;5129987;27;20055;-76
2023/01/20 04:31:59;;;;;;;40.47;19.60;;;;;;;;;;5118804;27;20303;-76
2023/01/20 04:34:24;;;;;;;43.95;19.85;;;;;;;;;;5137782;27;20276;-75
2023/01/20 04:36:50;;;;;;;42.78;19.95;;;;;;;;;;5139989;27;20018;-77
2023/01/20 04:39:15;;;;;;;44.93;20.83;;;;;;;;;;5134842;27;20019;-75
2023/01/20 04:41:40;;;;;;;41.27;18.50;;;;;;;;;;5116034;27;20286;-75
2023/01/20 04:44:06;;;;;;;47.77;21.33;;;;;;;;;;5132576;27;20784;-75
2023/01/20 04:46:31;;;;;;;45.10;21.13;;;;;;;;;;5132173;27;20282;-75
2023/01/20 04:48:56;;;;;;;50.70;23.00;;;;;;;;;;5114463;28;20035;-75
2023/01/20 04:51:22;;;;;;;50.97;22.48;;;;;;;;;;5140163;27;20031;-76
2023/01/20 04:53:47;;;;;;;47.83;21.30;;;;;;;;;;5125833;27;20079;-75
2023/01/20 04:56:13;;;;;;;45.87;20.80;;;;;;;;;;5135945;27;20559;-75
2023/01/20 04:58:38;;;;;;;47.92;22.58;;;;;;;;;;5135434;27;20358;-75
2023/01/20 05:01:04;;;;;;;44.50;20.83;;;;;;;;;;5138326;27;20031;-75
2023/01/20 05:03:29;;;;;;;46.08;20.85;;;;;;;;;;5114623;28;20027;-75
2023/01/20 05:05:54;;;;;;;47.90;21.88;;;;;;;;;;5111747;27;20053;-73
2023/01/20 05:08:20;;;;;;;49.85;21.80;;;;;;;;;;5130740;27;20384;-67
2023/01/20 05:10:45;;;;;;;46.08;20.73;;;;;;;;;;5120648;27;20035;-67
2023/01/20 05:13:10;;;;;;;49.33;21.10;;;;;;;;;;5131792;27;20022;-68
2023/01/20 05:15:36;;;;;;;52.03;22.40;;;;;;;;;;5110728;28;20629;-68
2023/01/20 05:18:01;;;;;;;47.47;21.20;;;;;;;;;;5109249;27;20328;-68
2023/01/20 05:20:26;;;;;;;54.87;23.07;;;;;;;;;;5128776;27;20342;-67
2023/01/20 05:22:51;;;;;;;51.47;23.30;;;;;;;;;;5146503;27;20026;-68
2023/01/20 05:25:17;;;;;;;48.33;21.35;;;;;;;;;;5136485;27;20022;-68
2023/01/20 05:27:43;;;;;;;54.03;22.53;;;;;;;;;;5122606;27;20030;-68
2023/01/20 05:30:09;;;;;;;49.38;20.25;;;;;;;;;;5139150;27;20519;-67
2023/01/20 05:32:34;;;;;;;54.05;23.40;;;;;;;;;;5123548;27;20064;-67
2023/01/20 05:35:00;;;;;;;50.00;21.03;;;;;;;;;;5131119;27;20026;-68
2023/01/20 05:37:25;;;;;;;48.23;20.70;;;;;;;;;;5130028;27;20632;-71
2023/01/20 05:39:50;;;;;;;58.10;23.63;;;;;;;;;;5116533;27;20098;-71
2023/01/20 05:42:15;;;;;;;47.53;20.90;;;;;;;;;;5134273;27;21271;-70
2023/01/20 05:44:41;;;;;;;54.00;21.77;;;;;;;;;;5108208;27;20138;-69
2023/01/20 05:47:06;;;;;;;48.80;20.70;;;;;;;;;;5111243;27;20271;-69
2023/01/20 05:49:31;;;;;;;47.10;20.67;;;;;;;;;;5107472;27;20800;-68
2023/01/20 05:51:56;;;;;;;53.70;21.58;;;;;;;;;;5109702;27;20087;-68
2023/01/20 05:54:22;;;;;;;46.63;21.17;;;;;;;;;;5110362;27;20027;-65
2023/01/20 05:56:48;;;;;;;58.13;24.88;;;;;;;;;;5111772;27;20256;-65
2023/01/20 05:59:13;;;;;;;50.65;22.90;;;;;;;;;;5116548;27;20053;-66
2023/01/20 06:01:39;;;;;;;45.30;20.53;;;;;;;;;;5116718;27;20031;-66
2023/01/20 06:04:04;;;;;;;52.38;20.90;;;;;;;;;;5114623;27;20274;-65
2023/01/20 06:06:30;;;;;;;51.05;21.55;;;;;;;;;;5113767;27;20024;-68
2023/01/20 06:08:55;;;;;;;48.90;21.67;;;;;;;;;;5107799;27;20031;-67
2023/01/20 06:11:20;;;;;;;50.60;21.60;;;;;;;;;;5110042;27;20019;-68
2023/01/20 06:13:47;;;;;;;54.13;21.30;;;;;;;;;;5114013;27;20110;-68
2023/01/20 06:16:12;;;;;;;50.75;21.73;;;;;;;;;;5111283;27;21612;-67
2023/01/20 06:18:37;;;;;;;56.60;22.93;;;;;;;;;;5110787;27;20114;-67
2023/01/20 06:21:03;;;;;;;56.37;23.40;;;;;;;;;;5110795;27;20279;-68
2023/01/20 06:23:28;;;;;;;52.95;22.00;;;;;;;;;;5111016;27;20023;-68
2023/01/20 06:26:12;;;;;;;55.28;23.23;;;;;;;;;;5104834;27;20031;-68
2023/01/20 06:28:37;;;;;;;54.15;23.13;;;;;;;;;;5114537;27;20376;-67
2023/01/20 06:31:10;;;;;;;53.43;23.17;;;;;;;;;;5104617;27;20020;-66
2023/01/20 06:33:35;;;;;;;52.38;22.08;;;;;;;;;;5103966;27;20276;-65
2023/01/20 06:36:00;;;;;;;51.73;21.90;;;;;;;;;;5106226;27;20720;-66
2023/01/20 06:38:27;;;;;;;53.60;22.40;;;;;;;;;;5101798;27;20280;-67
2023/01/20 06:40:59;;;;;;;52.17;20.67;;;;;;;;;;5113116;27;20122;-66
2023/01/20 06:43:24;;;;;;;51.35;21.48;;;;;;;;;;5111679;27;20027;-67
2023/01/20 06:45:50;;;;;;;49.53;20.65;;;;;;;;;;5136387;27;20050;-67
2023/01/20 06:48:15;;;;;;;51.90;21.45;;;;;;;;;;5129389;27;20023;-70
2023/01/20 06:50:41;;;;;;;50.55;20.70;;;;;;;;;;5120819;27;20038;-70
2023/01/20 06:53:07;;;;;;;45.33;19.83;;;;;;;;;;5116818;27;20023;-70
2023/01/20 06:55:32;;;;;;;46.08;20.35;;;;;;;;;;5108286;27;20767;-70
2023/01/20 06:57:57;;;;;;;44.22;19.48;;;;;;;;;;5135178;27;20018;-70
2023/01/20 07:00:23;;;;;;;47.37;18.57;;;;;;;;;;5128833;27;20393;-70
2023/01/20 07:02:48;;;;;;;47.17;21.05;;;;;;;;;;5130420;27;20267;-70
2023/01/20 07:05:13;;;;;;;53.83;23.37;;;;;;;;;;5132877;27;20051;-70
2023/01/20 07:07:39;;;;;;;50.90;20.98;;;;;;;;;;5115371;27;20023;-70
2023/01/20 07:10:04;;;;;;;41.40;18.83;;;;;;;;;;5113281;27;20093;-69
2023/01/20 07:12:30;;;;;;;44.80;19.63;;;;;;;;;;5132377;27;20018;-69
2023/01/20 07:14:55;;;;;;;47.67;20.43;;;;;;;;;;5144638;27;20027;-69
2023/01/20 07:17:20;;;;;;;97.25;28.02;;;;;;;;;;5135283;27;20316;-69
2023/01/20 07:19:45;;;;;;;51.67;21.53;;;;;;;;;;5139495;27;20030;-69
2023/01/20 07:22:11;;;;;;;48.60;19.30;;;;;;;;;;5139319;27;20277;-70
2023/01/20 07:24:36;;;;;;;50.20;21.03;;;;;;;;;;5136692;27;20740;-70
2023/01/20 07:27:01;;;;;;;47.23;21.00;;;;;;;;;;5140381;27;20287;-69
2023/01/20 07:29:26;;;;;;;52.90;21.57;;;;;;;;;;5140030;27;20759;-70
2023/01/20 07:31:52;;;;;;;47.85;19.25;;;;;;;;;;5129301;27;20456;-71
2023/01/20 07:34:17;;;;;;;47.00;20.80;;;;;;;;;;5130102;27;20019;-69
2023/01/20 07:36:42;;;;;;;48.23;19.90;;;;;;;;;;5130641;27;20271;-68
2023/01/20 07:39:09;;;;;;;50.20;20.50;;;;;;;;;;5138138;27;20294;-67
2023/01/20 07:41:34;;;;;;;49.30;18.25;;;;;;;;;;5099580;27;20392;-70
2023/01/20 07:43:59;;;;;;;44.20;19.33;;;;;;;;;;5126895;27;20030;-68
2023/01/20 07:46:24;;;;;;;43.33;18.27;;;;;;;;;;5126207;27;20029;-67
2023/01/20 07:48:50;;;;;;;43.33;18.53;;;;;;;;;;5127941;27;20276;-68
2023/01/20 07:51:15;;;;;;;47.27;19.00;;;;;;;;;;5138277;27;20275;-68
2023/01/20 07:53:45;;;;;;;47.08;20.35;;;;;;;;;;5140603;27;20624;-68
2023/01/20 07:56:11;;;;;;;40.88;17.13;;;;;;;;;;5141924;27;20021;-68
2023/01/20 07:58:36;;;;;;;44.33;18.60;;;;;;;;;;5119800;27;20023;-69
2023/01/20 08:01:09;;;;;;;42.38;19.55;;;;;;;;;;5134719;27;20072;-68
2023/01/20 08:03:34;;;;;;;46.25;19.65;;;;;;;;;;5118714;27;20491;-68
2023/01/20 08:06:03;;;;;;;48.42;19.92;;;;;;;;;;5113998;27;20031;-68
2023/01/20 08:08:29;;;;;;;43.65;19.63;;;;;;;;;;5123856;27;20038;-68
2023/01/20 08:10:55;;;;;;;48.50;18.67;;;;;;;;;;5125367;27;20019;-69
2023/01/20 08:13:20;;;;;;;40.88;17.63;;;;;;;;;;5115203;27;20071;-68
2023/01/20 08:15:45;;;;;;;44.30;18.80;;;;;;;;;;5098982;27;20019;-68
2023/01/20 08:18:11;;;;;;;47.57;19.67;;;;;;;;;;5126903;27;20031;-69
2023/01/20 08:20:39;;;;;;;43.07;19.00;;;;;;;;;;5113655;27;20303;-68
2023/01/20 08:23:05;;;;;;;49.67;19.17;;;;;;;;;;5125898;27;20282;-68
2023/01/20 08:25:30;;;;;;;36.35;16.33;;;;;;;;;;5125293;27;20400;-68
2023/01/20 08:27:55;;;;;;;38.60;17.20;;;;;;;;;;5129515;27;20483;-69
2023/01/20 08:30:20;;;;;;;42.67;18.23;;;;;;;;;;5132932;27;20263;-72
2023/01/20 08:32:46;;;;;;;53.03;20.80;;;;;;;;;;5125247;27;20027;-72
2023/01/20 08:35:11;;;;;;;46.63;19.07;;;;;;;;;;5126160;27;20259;-69
2023/01/20 08:37:36;;;;;;;43.93;19.70;;;;;;;;;;5140448;27;20111;-72
2023/01/20 08:40:03;;;;;;;43.80;18.55;;;;;;;;;;5132655;27;20267;-68
2023/01/20 08:42:28;;;;;;;45.28;18.70;;;;;;;;;;5114942;27;20023;-68
2023/01/20 08:44:53;;;;;;;43.35;18.10;;;;;;;;;;5133572;27;20520;-68
2023/01/20 08:47:19;;;;;;;42.03;17.60;;;;;;;;;;5113955;27;20027;-69
2023/01/20 08:49:44;;;;;;;40.17;18.10;;;;;;;;;;5130619;27;20740;-69
2023/01/20 08:52:09;;;;;;;43.83;17.83;;;;;;;;;;5117171;27;20433;-68
2023/01/20 08:54:34;;;;;;;50.73;19.77;;;;;;;;;;5111872;27;20027;-68
2023/01/20 08:57:00;;;;;;;40.07;17.20;;;;;;;;;;5116743;27;20022;-68
2023/01/20 08:59:25;;;;;;;49.03;18.75;;;;;;;;;;5110616;27;20328;-70
2023/01/20 09:01:50;;;;;;;43.43;18.63;;;;;;;;;;5128636;27;20431;-68
2023/01/20 09:04:15;;;;;;;40.67;17.77;;;;;;;;;;5112972;27;20029;-69
2023/01/20 09:06:45;;;;;;;42.57;18.13;;;;;;;;;;5125625;27;20289;-72
2023/01/20 09:09:11;;;;;;;37.88;17.13;;;;;;;;;;5140601;27;20654;-72
2023/01/20 09:11:37;;;;;;;45.80;18.50;;;;;;;;;;5141454;27;20027;-72
2023/01/20 09:14:02;;;;;;;41.28;16.90;;;;;;;;;;5134851;27;20019;-72
2023/01/20 09:16:28;;;;;;;40.57;17.43;;;;;;;;;;5136632;27;20019;-71
2023/01/20 09:18:53;;;;;;;42.90;18.83;;;;;;;;;;5115433;27;20362;-74
2023/01/20 09:21:18;;;;;;;38.27;17.70;;;;;;;;;;5133460;27;20275;-72
2023/01/20 09:23:46;;;;;;;41.05;18.80;;;;;;;;;;5117354;27;20756;-73
2023/01/20 09:26:12;;;;;;;45.47;19.05;;;;;;;;;;5138204;27;20469;-72
2023/01/20 09:28:37;;;;;;;48.17;19.77;;;;;;;;;;5136146;27;20027;-73
2023/01/20 09:31:03;;;;;;;42.90;18.23;;;;;;;;;;5134806;27;20023;-72
2023/01/20 09:33:29;;;;;;;44.33;18.42;;;;;;;;;;5112891;27;20026;-73
2023/01/20 09:35:55;;;;;;;39.58;16.73;;;;;;;;;;5126621;27;20019;-70
2023/01/20 09:44:43;;;;;;;35.63;15.85;;;;;;;;;;5137827;27;20057;-70
2023/01/20 09:47:20;;;;;;;37.42;16.73;;;;;;;;;;5062670;28;20042;-73
2023/01/20 09:55:27;;;;;;;30.67;13.70;;;;;;;;;;5067236;28;20077;-73
2023/01/20 09:58:01;;;;;;;35.33;16.13;;;;;;;;;;5065164;28;20063;-73
2023/01/20 10:00:28;;;;;;;37.33;16.85;;;;;;;;;;5065614;28;20036;-73
2023/01/20 10:03:02;;;;;;;35.55;16.73;;;;;;;;;;5066477;28;20601;-73
2023/01/20 10:05:32;;;;;;;40.85;17.25;;;;;;;;;;5066471;28;20033;-74
2023/01/20 10:08:01;;;;;;;37.25;15.30;;;;;;;;;;5068078;28;20039;-74
2023/01/20 10:10:30;;;;;;;44.50;17.90;;;;;;;;;;5068549;28;20040;-74
2023/01/20 10:13:03;;;;;;;39.00;15.10;;;;;;;;;;5052131;28;20064;-74
2023/01/20 10:15:32;;;;;;;38.42;15.52;;;;;;;;;;5068555;28;20506;-74
2023/01/20 10:18:01;;;;;;;25.93;11.63;;;;;;;;;;5054616;28;20425;-69
2023/01/20 10:20:29;;;;;;;35.92;15.68;;;;;;;;;;5085464;27;20302;-71
2023/01/20 10:23:09;;;;;;;36.85;16.05;;;;;;;;;;5143783;27;20023;-71
2023/01/20 10:25:41;;;;;;;34.45;14.13;;;;;;;;;;5142274;27;20487;-70
2023/01/20 10:28:26;;;;;;;30.38;13.75;;;;;;;;;;5137250;27;20038;-70
2023/01/20 10:30:51;;;;;;;29.92;12.70;;;;;;;;;;5140787;27;20014;-71
2023/01/20 10:33:24;;;;;;;26.60;12.00;;;;;;;;;;5121145;27;20388;-71
2023/01/20 10:35:51;;;;;;;30.65;14.00;;;;;;;;;;5121461;27;20023;-71
2023/01/20 10:38:23;;;;;;;36.15;15.48;;;;;;;;;;5130660;27;20048;-71
2023/01/20 10:41:09;;;;;;;33.25;14.70;;;;;;;;;;5141174;27;20491;-70
2023/01/20 10:43:34;;;;;;;33.67;15.15;;;;;;;;;;5117408;27;20127;-70
2023/01/20 10:45:59;;;;;;;32.33;14.95;;;;;;;;;;5102780;27;20039;-74
2023/01/20 10:48:43;;;;;;;34.47;15.67;;;;;;;;;;5133275;27;20038;-69
2023/01/20 10:51:08;;;;;;;92.47;42.20;;;;;;;;;;5112140;27;20026;-70
2023/01/20 10:53:46;;;;;;;152.20;60.33;;;;;;;;;;5114135;27;20027;-69
2023/01/20 10:56:20;;;;;;;192.82;77.38;;;;;;;;;;5127791;27;20051;-70
2023/01/20 10:58:46;;;;;;;98.55;40.40;;;;;;;;;;5135754;27;20027;-70
2023/01/20 11:01:15;;;;;;;69.30;29.55;;;;;;;;;;5138035;27;21320;-70
2023/01/20 11:03:42;;;;;;;51.00;23.98;;;;;;;;;;5113913;27;20507;-69
2023/01/20 11:06:15;;;;;;;45.95;20.23;;;;;;;;;;5135800;27;20034;-70
2023/01/20 11:08:41;;;;;;;39.65;18.92;;;;;;;;;;5138195;27;20022;-70
2023/01/20 11:11:14;;;;;;;37.35;17.40;;;;;;;;;;5132113;27;20023;-70
2023/01/20 11:13:39;;;;;;;31.42;15.90;;;;;;;;;;5132626;27;20019;-75
2023/01/20 11:16:16;;;;;;;31.70;15.13;;;;;;;;;;5133074;27;20019;-75
2023/01/20 11:18:41;;;;;;;30.50;15.48;;;;;;;;;;5135225;27;20279;-71
2023/01/20 11:21:08;;;;;;;26.65;13.80;;;;;;;;;;5110619;27;20088;-72
2023/01/20 11:23:36;;;;;;;24.88;12.73;;;;;;;;;;5110551;27;20109;-73
2023/01/20 11:26:16;;;;;;;23.92;12.10;;;;;;;;;;5129198;27;20016;-74
2023/01/20 11:29:01;;;;;;;25.15;12.38;;;;;;;;;;5109454;27;20380;-72
2023/01/20 11:31:35;;;;;;;22.83;12.00;;;;;;;;;;5111387;27;20110;-71
2023/01/20 11:34:20;;;;;;;32.08;16.48;;;;;;;;;;5103810;27;21363;-68
2023/01/20 11:36:46;;;;;;;29.95;14.65;;;;;;;;;;5113062;27;20047;-69
2023/01/20 11:39:30;;;;;;;28.63;15.07;;;;;;;;;;5122727;27;20116;-69
2023/01/20 11:42:15;;;;;;;29.40;14.48;;;;;;;;;;5137908;27;20027;-69
2023/01/20 11:44:44;;;;;;;24.10;12.95;;;;;;;;;;5134595;27;20545;-69
2023/01/20 11:47:24;;;;;;;24.00;12.32;;;;;;;;;;5134703;27;20074;-69
2023/01/20 11:50:07;;;;;;;25.25;13.10;;;;;;;;;;5113408;27;20298;-70
2023/01/20 11:52:33;;;;;;;26.85;12.77;;;;;;;;;;5130452;27;20023;-69
2023/01/20 11:55:19;;;;;;;23.07;11.73;;;;;;;;;;5118283;27;20027;-69
2023/01/20 11:57:46;;;;;;;25.95;12.45;;;;;;;;;;5133321;27;20027;-68
2023/01/20 12:00:17;;;;;;;26.63;13.05;;;;;;;;;;5114996;27;20476;-68
2023/01/20 12:02:43;;;;;;;28.10;13.13;;;;;;;;;;5099646;27;20049;-69
2023/01/20 12:05:19;;;;;;;25.58;12.65;;;;;;;;;;5114554;27;20027;-69
2023/01/20 12:07:45;;;;;;;27.73;14.02;;;;;;;;;;5128678;27;20034;-67
2023/01/20 12:10:16;;;;;;;24.95;12.60;;;;;;;;;;5122171;27;20031;-67
2023/01/20 12:12:44;;;;;;;23.98;13.00;;;;;;;;;;5133718;27;20388;-68
2023/01/20 12:15:20;;;;;;;24.67;12.02;;;;;;;;;;5130800;27;20092;-67
2023/01/20 12:17:59;;;;;;;24.48;12.30;;;;;;;;;;5131255;27;20860;-68
2023/01/20 12:20:27;;;;;;;26.35;12.80;;;;;;;;;;5132705;27;20153;-67
2023/01/20 12:23:13;;;;;;;29.10;13.65;;;;;;;;;;5134307;27;20023;-68
2023/01/20 12:25:45;;;;;;;29.55;13.82;;;;;;;;;;5103123;27;20027;-68
2023/01/20 12:28:21;;;;;;;30.95;14.50;;;;;;;;;;5128797;27;20031;-68
2023/01/20 12:30:50;;;;;;;31.27;15.07;;;;;;;;;;5123881;27;20023;-68
2023/01/20 12:33:27;;;;;;;31.55;16.55;;;;;;;;;;5126742;27;20038;-67
2023/01/20 12:36:16;;;;;;;40.38;18.58;;;;;;;;;;5126885;27;20023;-66
2023/01/20 12:39:00;;;;;;;36.20;17.90;;;;;;;;;;5110771;27;20401;-67
2023/01/20 12:41:46;;;;;;;31.98;15.38;;;;;;;;;;5127215;27;20035;-67
2023/01/20 12:44:11;;;;;;;32.35;15.52;;;;;;;;;;5090029;27;20047;-67
2023/01/20 12:46:44;;;;;;;33.47;17.58;;;;;;;;;;5125293;27;20054;-67
2023/01/20 12:49:17;;;;;;;33.15;17.23;;;;;;;;;;5118053;27;20034;-67
2023/01/20 12:51:48;;;;;;;33.30;15.05;;;;;;;;;;5137230;27;20027;-67
2023/01/20 12:54:25;;;;;;;31.65;15.93;;;;;;;;;;5139009;27;20034;-67
2023/01/20 12:56:51;;;;;;;33.10;16.35;;;;;;;;;;5133898;27;20026;-68
2023/01/20 12:59:19;;;;;;;34.63;17.03;;;;;;;;;;5131638;27;20019;-68
2023/01/20 13:01:57;;;;;;;33.67;15.70;;;;;;;;;;5131668;27;20339;-68
2023/01/20 13:04:27;;;;;;;29.73;15.82;;;;;;;;;;5111822;27;20042;-67
2023/01/20 13:07:11;;;;;;;31.88;15.57;;;;;;;;;;5139479;27;20019;-67
2023/01/20 13:09:55;;;;;;;33.35;17.33;;;;;;;;;;5111057;28;20054;-68
2023/01/20 13:12:30;;;;;;;31.55;15.43;;;;;;;;;;5120784;27;20023;-66
2023/01/20 13:15:04;;;;;;;35.40;18.58;;;;;;;;;;5134953;27;20034;-67
2023/01/20 13:17:36;;;;;;;30.38;15.23;;;;;;;;;;5136548;27;20031;-66
2023/01/20 13:20:03;;;;;;;31.63;15.07;;;;;;;;;;5130066;27;20060;-68
2023/01/20 13:22:29;;;;;;;35.13;15.85;;;;;;;;;;5122429;27;20049;-68
2023/01/20 13:24:55;;;;;;;29.35;14.75;;;;;;;;;;5123175;27;20445;-67
2023/01/20 13:27:26;;;;;;;31.90;14.90;;;;;;;;;;5130041;27;20093;-67
2023/01/20 13:29:54;;;;;;;27.90;13.93;;;;;;;;;;5133416;27;20873;-68
2023/01/20 13:32:38;;;;;;;23.75;12.82;;;;;;;;;;5113926;27;20035;-67
2023/01/20 13:35:18;;;;;;;27.25;12.85;;;;;;;;;;5135779;27;20045;-66
2023/01/20 13:37:50;;;;;;;25.55;12.38;;;;;;;;;;5134611;27;20117;-67
2023/01/20 13:40:34;;;;;;;27.33;12.68;;;;;;;;;;5135515;27;20034;-67
2023/01/20 13:42:59;;;;;;;25.67;12.93;;;;;;;;;;5133469;27;20480;-67
2023/01/20 13:45:26;;;;;;;27.90;13.10;;;;;;;;;;5143785;27;20054;-67
2023/01/20 13:47:56;;;;;;;25.40;12.57;;;;;;;;;;5138169;27;20843;-67
2023/01/20 13:50:22;;;;;;;33.95;15.35;;;;;;;;;;5133776;27;20019;-67
2023/01/20 13:52:53;;;;;;;29.02;14.63;;;;;;;;;;5116646;27;20041;-67
2023/01/20 13:55:37;;;;;;;31.63;14.35;;;;;;;;;;5132911;27;20027;-67
2023/01/20 13:58:02;;;;;;;35.38;15.32;;;;;;;;;;5125045;27;20042;-68
2023/01/20 14:00:27;;;;;;;33.03;15.27;;;;;;;;;;5124754;27;20494;-67
2023/01/20 14:02:52;;;;;;;32.93;13.53;;;;;;;;;;5092547;27;20044;-66
2023/01/20 14:05:19;;;;;;;33.15;15.07;;;;;;;;;;5106364;28;20276;-68
2023/01/20 14:07:44;;;;;;;32.40;14.73;;;;;;;;;;5101485;28;20032;-66
2023/01/20 14:10:10;;;;;;;33.97;15.23;;;;;;;;;;5085760;28;20065;-67
2023/01/20 14:12:39;;;;;;;28.77;13.18;;;;;;;;;;5104324;28;20023;-68
2023/01/20 14:15:05;;;;;;;35.03;14.38;;;;;;;;;;5103098;28;20081;-69
2023/01/20 14:17:30;;;;;;;49.05;16.60;;;;;;;;;;5105680;28;20036;-68
2023/01/20 14:19:55;;;;;;;42.60;16.60;;;;;;;;;;5102468;28;20019;-66
2023/01/20 14:22:29;;;;;;;45.97;18.23;;;;;;;;;;5102387;28;20035;-68
2023/01/20 14:24:59;;;;;;;46.80;18.65;;;;;;;;;;5105408;28;20291;-68
2023/01/20 14:27:27;;;;;;;35.95;15.52;;;;;;;;;;5084395;28;20042;-68
2023/01/20 14:29:53;;;;;;;37.90;16.13;;;;;;;;;;5092592;28;20323;-69
2023/01/20 14:32:25;;;;;;;34.20;16.23;;;;;;;;;;5090755;28;20057;-68
2023/01/20 14:34:51;;;;;;;32.70;15.05;;;;;;;;;;5107360;28;20054;-68